Time;durP1;ratioP1;P1;durP2;ratioP2;P2;SDS_P1;SDS_P2;PMS_P1;PMS_P2;Temp;Humidity;BMP_temperature;BMP_pressure;BME280_temperature;BME280_humidity;BME280_pressure;Samples;Min_cycle;Max_cycle;Signal;HPM_P1;HPM_P2
2023/05/29 00:00:43;;;;;;;11.93;7.30;;;;;;;14.88;nan;100423.88;5063272;28;20027;-74
2023/05/29 00:03:09;;;;;;;15.38;7.20;;;;;;;14.98;nan;100431.13;5048964;28;20028;-72
2023/05/29 00:05:35;;;;;;;14.85;7.70;;;;;;;14.95;nan;100426.34;5058337;28;20025;-72
2023/05/29 00:08:01;;;;;;;18.90;8.55;;;;;;;14.73;nan;100384.00;5056783;28;20059;-73
2023/05/29 00:10:26;;;;;;;11.65;7.93;;;;;;;14.89;nan;100414.06;5059021;28;20013;-73
2023/05/29 00:12:52;;;;;;;13.70;8.10;;;;;;;14.94;nan;100427.41;5055981;28;20065;-72
2023/05/29 00:15:17;;;;;;;12.70;7.93;;;;;;;14.90;nan;100410.38;5055149;28;20102;-72
2023/05/29 00:17:43;;;;;;;20.25;8.30;;;;;;;14.93;nan;100428.44;5055422;28;20451;-73
2023/05/29 00:20:11;;;;;;;18.25;7.82;;;;;;;14.98;nan;100422.38;5060319;28;20020;-73
2023/05/29 00:22:37;;;;;;;13.82;7.97;;;;;;;14.90;nan;100410.38;5062879;28;20024;-73
2023/05/29 00:25:07;;;;;;;19.63;8.93;;;;;;;15.00;nan;100428.22;5059153;28;20044;-73
2023/05/29 00:27:33;;;;;;;15.80;8.02;;;;;;;14.99;nan;100421.31;5060326;28;20036;-73
2023/05/29 00:29:59;;;;;;;12.98;7.18;;;;;;;14.89;nan;100408.78;5062585;28;20104;-73
2023/05/29 00:32:25;;;;;;;12.85;7.63;;;;;;;15.01;nan;100425.34;5063178;28;20021;-73
2023/05/29 00:34:51;;;;;;;16.42;7.35;;;;;;;14.89;nan;100414.06;5061792;28;20037;-73
2023/05/29 00:37:16;;;;;;;15.02;7.63;;;;;;;15.01;nan;100421.84;5058101;28;20087;-73
2023/05/29 00:39:42;;;;;;;11.85;7.55;;;;;;;14.95;nan;100421.03;5062457;28;20463;-73
2023/05/29 00:42:07;;;;;;;16.38;7.43;;;;;;;14.94;nan;100408.00;5061364;28;20021;-73
2023/05/29 00:44:33;;;;;;;15.52;7.28;;;;;;;14.79;nan;100382.97;5044053;28;20127;-73
2023/05/29 00:46:58;;;;;;;14.50;7.90;;;;;;;15.04;nan;100422.16;5061945;28;20040;-73
2023/05/29 00:49:25;;;;;;;17.80;7.57;;;;;;;15.03;nan;100423.22;5060798;28;20017;-74
2023/05/29 00:51:52;;;;;;;14.10;7.55;;;;;;;15.02;nan;100418.19;5061009;28;20064;-74
2023/05/29 00:54:22;;;;;;;17.60;7.20;;;;;;;15.09;nan;100434.66;5058791;28;20514;-73
2023/05/29 00:56:48;;;;;;;18.33;6.90;;;;;;;15.08;nan;100425.09;5062776;28;20032;-73
2023/05/29 00:59:13;;;;;;;13.30;7.40;;;;;;;15.04;nan;100424.81;5061992;28;20115;-72
2023/05/29 01:01:40;;;;;;;11.40;7.65;;;;;;;15.09;nan;100439.97;5064937;28;20083;-73
2023/05/29 01:04:06;;;;;;;14.80;8.05;;;;;;;15.14;nan;100452.47;5061477;28;20025;-68
2023/05/29 01:06:32;;;;;;;12.40;6.75;;;;;;;15.16;nan;100445.06;5048095;28;20052;-69
2023/05/29 01:08:58;;;;;;;16.40;7.53;;;;;;;15.05;nan;100431.72;5064320;28;20024;-69
2023/05/29 01:11:42;;;;;;;15.38;6.80;;;;;;;15.07;nan;100421.66;5065668;28;20021;-68
2023/05/29 01:14:14;;;;;;;14.02;7.25;;;;;;;15.09;nan;100424.84;5052500;28;20023;-68
2023/05/29 01:16:57;;;;;;;14.23;6.72;;;;;;;15.16;nan;100429.16;5064313;28;20035;-68
2023/05/29 01:19:58;;;;;;;15.55;7.10;;;;;;;15.05;nan;100415.81;5064631;28;20459;-73
2023/05/29 01:22:58;;;;;;;10.60;7.05;;;;;;;15.12;nan;100425.41;5066047;28;20485;-73
2023/05/29 01:25:29;;;;;;;10.57;7.18;;;;;;;15.10;nan;100423.78;5064579;28;20085;-73
2023/05/29 01:27:55;;;;;;;10.68;6.80;;;;;;;14.99;nan;100402.75;5061977;28;20056;-74
2023/05/29 01:30:23;;;;;;;18.17;7.18;;;;;;;15.09;nan;100418.75;5066418;28;20036;-74
2023/05/29 01:32:50;;;;;;;10.27;6.85;;;;;;;15.06;nan;100416.59;5049264;28;20616;-74
2023/05/29 01:35:15;;;;;;;16.75;7.18;;;;;;;15.05;nan;100418.44;5066348;28;20021;-72
2023/05/29 01:37:40;;;;;;;15.00;7.07;;;;;;;15.07;nan;100418.22;5069048;28;20060;-72
2023/05/29 01:40:07;;;;;;;14.10;7.35;;;;;;;15.07;nan;100421.66;5064336;28;20047;-72
2023/05/29 01:42:32;;;;;;;14.32;6.82;;;;;;;15.12;nan;100422.75;5053155;28;20048;-72
2023/05/29 01:44:59;;;;;;;14.60;6.90;;;;;;;15.08;nan;100407.34;5065468;28;20029;-72
2023/05/29 01:47:25;;;;;;;10.05;7.22;;;;;;;15.07;nan;100405.75;5067010;28;20086;-73
2023/05/29 01:49:52;;;;;;;11.65;7.30;;;;;;;15.07;nan;100407.59;5047583;28;20032;-74
2023/05/29 01:52:17;;;;;;;12.65;6.95;;;;;;;14.99;nan;100392.97;5064275;28;20032;-72
2023/05/29 01:54:43;;;;;;;10.68;7.15;;;;;;;15.00;nan;100399.84;5066701;28;20041;-74
2023/05/29 01:57:10;;;;;;;14.07;6.93;;;;;;;15.00;nan;100396.41;5067981;28;20494;-74
2023/05/29 01:59:37;;;;;;;10.65;7.22;;;;;;;14.83;nan;100370.03;5070836;28;20028;-73
2023/05/29 02:02:10;;;;;;;12.43;7.25;;;;;;;14.93;nan;100387.88;5070144;28;20028;-72
2023/05/29 02:04:35;;;;;;;15.27;7.28;;;;;;;14.89;nan;100372.47;5064910;28;20017;-72
2023/05/29 02:07:01;;;;;;;15.65;6.88;;;;;;;14.90;nan;100381.22;5066015;28;20522;-74
2023/05/29 02:09:27;;;;;;;16.55;7.10;;;;;;;14.86;nan;100385.44;5069025;28;20024;-74
2023/05/29 02:11:52;;;;;;;14.25;7.05;;;;;;;14.85;nan;100384.63;5065656;28;20108;-73
2023/05/29 02:14:18;;;;;;;12.77;8.00;;;;;;;15.00;nan;100404.38;5069731;28;20051;-73
2023/05/29 02:16:46;;;;;;;17.42;6.88;;;;;;;14.88;nan;100383.31;5056502;28;20482;-73
2023/05/29 02:19:11;;;;;;;16.00;7.18;;;;;;;14.63;nan;100347.63;5072329;28;20048;-73
2023/05/29 02:21:43;;;;;;;17.27;7.70;;;;;;;14.96;nan;100396.09;5074363;28;20391;-73
2023/05/29 02:24:08;;;;;;;14.43;7.07;;;;;;;14.96;nan;100393.44;5051868;28;20497;-73
2023/05/29 02:26:36;;;;;;;12.88;7.05;;;;;;;14.96;nan;100397.97;5069983;28;20024;-74
2023/05/29 02:29:02;;;;;;;9.32;6.32;;;;;;;14.91;nan;100389.97;5068562;28;20036;-76
2023/05/29 02:31:28;;;;;;;11.45;6.38;;;;;;;14.81;nan;100375.59;5072006;28;20032;-73
2023/05/29 02:33:53;;;;;;;12.15;6.38;;;;;;;14.93;nan;100395.81;5072637;28;20080;-73
2023/05/29 02:36:18;;;;;;;12.30;6.35;;;;;;;14.89;nan;100387.56;5066453;28;20074;-73
2023/05/29 02:38:44;;;;;;;16.58;6.40;;;;;;;14.62;nan;100345.22;5056019;28;20029;-73
2023/05/29 02:41:09;;;;;;;12.60;6.38;;;;;;;14.90;nan;100391.84;5073213;28;20043;-73
2023/05/29 02:43:34;;;;;;;15.15;7.10;;;;;;;14.81;nan;100382.75;5070597;28;20553;-73
2023/05/29 02:46:00;;;;;;;10.52;6.57;;;;;;;14.83;nan;100383.28;5051494;28;20028;-74
2023/05/29 02:48:25;;;;;;;12.57;6.80;;;;;;;14.85;nan;100397.88;5044550;28;20036;-71
2023/05/29 02:50:51;;;;;;;17.45;7.10;;;;;;;14.86;nan;100396.81;5049067;28;20024;-72
2023/05/29 02:53:17;;;;;;;16.50;7.07;;;;;;;14.82;nan;100397.59;5052247;28;20099;-73
2023/05/29 02:55:42;;;;;;;13.55;6.90;;;;;;;14.77;nan;100392.25;5061990;28;20049;-73
2023/05/29 02:58:08;;;;;;;14.40;6.82;;;;;;;14.75;nan;100397.81;5049013;28;20032;-72
2023/05/29 03:00:34;;;;;;;15.63;7.35;;;;;;;14.74;nan;100398.06;5062337;28;20028;-72
2023/05/29 03:03:00;;;;;;;21.23;7.70;;;;;;;14.78;nan;100404.47;5062653;28;20024;-72
2023/05/29 03:05:25;;;;;;;14.00;6.93;;;;;;;14.72;nan;100397.50;5066799;28;20035;-74
2023/05/29 03:07:51;;;;;;;13.43;7.32;;;;;;;14.72;nan;100395.66;5067622;28;20062;-71
2023/05/29 03:10:17;;;;;;;11.43;6.40;;;;;;;14.71;nan;100396.72;5063333;28;20107;-74
2023/05/29 03:12:43;;;;;;;13.73;6.78;;;;;;;14.78;nan;100401.81;5065008;28;20032;-73
2023/05/29 03:15:20;;;;;;;18.23;7.00;;;;;;;14.73;nan;100393.81;5067712;28;20021;-77
2023/05/29 03:17:46;;;;;;;13.85;7.38;;;;;;;14.73;nan;100401.78;5063605;28;20036;-72
2023/05/29 03:20:15;;;;;;;14.05;6.95;;;;;;;14.70;nan;100404.91;5064794;28;20112;-74
2023/05/29 03:22:41;;;;;;;19.75;6.45;;;;;;;14.67;nan;100401.69;5064719;28;20044;-71
2023/05/29 03:25:07;;;;;;;22.27;7.55;;;;;;;14.80;nan;100420.91;5064812;28;20433;-73
2023/05/29 03:27:32;;;;;;;11.55;7.25;;;;;;;14.67;nan;100399.06;5063504;28;20025;-74
2023/05/29 03:30:01;;;;;;;10.23;6.68;;;;;;;14.68;nan;100405.97;5063437;28;20025;-74
2023/05/29 03:32:26;;;;;;;14.00;6.95;;;;;;;14.76;nan;100414.50;5044499;28;20048;-73
2023/05/29 03:34:51;;;;;;;17.15;7.25;;;;;;;14.82;nan;100418.78;5066318;28;20488;-74
2023/05/29 03:37:17;;;;;;;17.48;7.05;;;;;;;14.82;nan;100426.75;5062325;28;20032;-74
2023/05/29 03:39:42;;;;;;;19.42;6.60;;;;;;;14.84;nan;100424.66;5065735;28;20051;-74
2023/05/29 03:42:08;;;;;;;16.60;7.00;;;;;;;14.78;nan;100415.06;5045006;28;20040;-73
2023/05/29 03:44:36;;;;;;;15.57;7.10;;;;;;;14.91;nan;100430.53;5062445;28;20527;-73
2023/05/29 03:47:01;;;;;;;12.55;6.80;;;;;;;14.93;nan;100435.59;5060668;28;20021;-74
2023/05/29 03:49:27;;;;;;;15.00;6.80;;;;;;;14.95;nan;100434.28;5041088;28;20104;-75
2023/05/29 03:51:52;;;;;;;15.63;7.53;;;;;;;14.89;nan;100433.47;5054982;28;20583;-73
2023/05/29 03:54:17;;;;;;;11.50;6.90;;;;;;;14.83;nan;100423.84;5056971;28;20027;-72
2023/05/29 03:56:43;;;;;;;11.52;7.25;;;;;;;14.89;nan;100425.50;5060919;28;20048;-73
2023/05/29 03:59:11;;;;;;;12.20;6.22;;;;;;;14.99;nan;100438.03;5046656;28;20081;-76
2023/05/29 04:01:37;;;;;;;22.25;8.65;;;;;;;14.77;nan;100403.66;5045970;28;20029;-73
2023/05/29 04:04:02;;;;;;;9.90;6.68;;;;;;;15.00;nan;100438.84;5058725;28;20102;-75
2023/05/29 04:06:27;;;;;;;17.45;6.63;;;;;;;14.94;nan;100437.19;5043996;28;20017;-74
2023/05/29 04:08:53;;;;;;;12.45;6.72;;;;;;;14.94;nan;100438.00;5059042;28;20082;-74
2023/05/29 04:11:22;;;;;;;14.85;6.72;;;;;;;14.86;nan;100428.63;5042913;28;20031;-72
2023/05/29 04:13:48;;;;;;;13.65;6.72;;;;;;;14.95;nan;100441.44;5058573;28;20097;-73
2023/05/29 04:16:13;;;;;;;12.13;6.60;;;;;;;14.93;nan;100439.03;5059761;28;20033;-74
2023/05/29 04:18:39;;;;;;;11.02;6.53;;;;;;;14.91;nan;100429.75;5058654;28;20078;-73
2023/05/29 04:21:05;;;;;;;12.88;6.68;;;;;;;14.90;nan;100426.31;5062828;28;20486;-71
2023/05/29 04:23:31;;;;;;;9.50;6.18;;;;;;;14.99;nan;100440.69;5046551;28;20391;-72
2023/05/29 04:25:56;;;;;;;14.68;6.30;;;;;;;14.98;nan;100436.44;5059733;28;20029;-73
2023/05/29 04:28:21;;;;;;;18.02;6.53;;;;;;;14.96;nan;100427.13;5056979;28;20039;-76
2023/05/29 04:30:47;;;;;;;13.82;7.15;;;;;;;15.06;nan;100445.75;5058979;28;20540;-76
2023/05/29 04:33:15;;;;;;;13.18;6.97;;;;;;;15.03;nan;100441.78;5057435;28;20104;-76
2023/05/29 04:35:42;;;;;;;13.98;7.00;;;;;;;15.02;nan;100434.88;5056985;28;20036;-74
2023/05/29 04:38:09;;;;;;;16.52;6.97;;;;;;;15.10;nan;100450.31;5057698;28;20021;-74
2023/05/29 04:40:36;;;;;;;15.20;7.60;;;;;;;15.13;nan;100450.88;5058357;28;20056;-74
2023/05/29 04:43:02;;;;;;;9.63;7.20;;;;;;;15.18;nan;100446.41;5057142;28;20510;-73
2023/05/29 04:45:27;;;;;;;16.80;6.85;;;;;;;15.17;nan;100430.75;5058094;28;20028;-74
2023/05/29 04:47:54;;;;;;;11.80;7.40;;;;;;;15.24;nan;100433.97;5059973;28;20501;-74
2023/05/29 04:50:20;;;;;;;11.85;6.80;;;;;;;15.26;nan;100440.63;5061451;28;21269;-75
2023/05/29 04:52:46;;;;;;;16.88;7.97;;;;;;;15.34;nan;100436.69;5055633;28;20029;-75
2023/05/29 04:55:11;;;;;;;13.90;7.57;;;;;;;15.33;nan;100424.50;5059698;28;20175;-75
2023/05/29 04:57:37;;;;;;;14.07;6.93;;;;;;;15.47;nan;100441.56;5041990;28;20032;-74
2023/05/29 05:00:13;;;;;;;10.98;7.43;;;;;;;15.50;nan;100437.59;5059862;28;20025;-74
2023/05/29 05:02:43;;;;;;;15.13;8.88;;;;;;;15.60;nan;100442.16;5056707;28;20025;-74
2023/05/29 05:05:09;;;;;;;14.02;8.05;;;;;;;15.69;nan;100445.94;5060062;28;20076;-78
2023/05/29 05:07:35;;;;;;;17.17;7.35;;;;;;;15.75;nan;100442.25;5062883;28;20486;-78
2023/05/29 05:10:01;;;;;;;14.65;6.45;;;;;;;15.84;nan;100440.72;5061625;28;20031;-76
2023/05/29 05:12:26;;;;;;;10.77;7.70;;;;;;;15.97;nan;100444.78;5058387;28;20024;-77
2023/05/29 05:14:52;;;;;;;13.95;9.25;;;;;;;16.16;nan;100453.06;5059333;28;20087;-77
2023/05/29 05:17:17;;;;;;;14.52;7.85;;;;;;;16.27;nan;100452.03;5062224;28;20091;-77
2023/05/29 05:19:42;;;;;;;13.95;6.90;;;;;;;16.51;nan;100462.22;5063108;28;20028;-79
2023/05/29 05:22:08;;;;;;;9.00;5.57;;;;;;;16.65;nan;100465.16;5063390;28;20431;-77
2023/05/29 05:24:34;;;;;;;12.73;6.03;;;;;;;16.77;nan;100463.06;5067233;28;20434;-78
2023/05/29 05:27:00;;;;;;;7.25;4.97;;;;;;;16.70;nan;100467.81;5064494;28;20521;-78
2023/05/29 05:29:25;;;;;;;12.00;5.75;;;;;;;16.86;nan;100460.72;5060388;28;20025;-78
2023/05/29 05:31:51;;;;;;;10.13;5.38;;;;;;;16.91;nan;100463.38;5049110;28;20037;-77
2023/05/29 05:34:16;;;;;;;13.98;5.88;;;;;;;17.03;nan;100465.78;5061787;28;20438;-76
2023/05/29 05:36:42;;;;;;;10.60;5.30;;;;;;;17.20;nan;100475.06;5058056;28;20024;-77
2023/05/29 05:39:07;;;;;;;8.30;5.68;;;;;;;17.27;nan;100474.78;5058843;28;20029;-76
2023/05/29 05:41:32;;;;;;;8.77;5.10;;;;;;;17.28;nan;100465.72;5058425;28;20023;-76
2023/05/29 05:43:58;;;;;;;12.55;5.82;;;;;;;17.40;nan;100473.44;5063348;28;20044;-76
2023/05/29 05:46:23;;;;;;;6.90;4.90;;;;;;;17.47;nan;100465.97;5056500;28;20055;-76
2023/05/29 05:48:49;;;;;;;13.18;5.22;;;;;;;17.42;nan;100447.34;5056104;28;20030;-76
2023/05/29 05:51:14;;;;;;;15.05;5.70;;;;;;;17.49;nan;100461.19;5041016;28;20074;-76
2023/05/29 05:53:39;;;;;;;10.38;5.28;;;;;;;17.64;nan;100463.81;5055626;28;20033;-76
2023/05/29 05:56:05;;;;;;;11.57;5.15;;;;;;;17.68;nan;100465.94;5060140;28;20049;-76
2023/05/29 05:58:30;;;;;;;11.05;5.10;;;;;;;17.55;nan;100453.97;5056852;28;20035;-76
2023/05/29 06:00:57;;;;;;;7.97;5.55;;;;;;;17.50;nan;100438.81;5056347;28;20033;-77
2023/05/29 06:03:22;;;;;;;10.18;5.15;;;;;;;17.77;nan;100469.66;5056904;28;20025;-75
2023/05/29 06:05:48;;;;;;;13.88;5.22;;;;;;;17.74;nan;100452.34;5058643;28;20496;-77
2023/05/29 06:08:13;;;;;;;13.18;5.50;;;;;;;17.86;nan;100462.72;5058943;28;20057;-76
2023/05/29 06:10:38;;;;;;;10.48;5.20;;;;;;;18.02;nan;100476.78;5057477;28;20107;-76
2023/05/29 06:13:04;;;;;;;12.38;5.15;;;;;;;18.06;nan;100469.84;5057763;28;20028;-76
2023/05/29 06:15:29;;;;;;;10.35;5.07;;;;;;;18.13;nan;100477.56;5057911;28;20025;-76
2023/05/29 06:17:55;;;;;;;12.82;4.65;;;;;;;18.14;nan;100484.47;5057975;28;20042;-75
2023/05/29 06:20:21;;;;;;;13.55;5.53;;;;;;;18.06;nan;100469.84;5059880;28;20085;-75
2023/05/29 06:22:50;;;;;;;8.88;5.88;;;;;;;18.12;nan;100483.94;5057424;28;20505;-75
2023/05/29 06:25:16;;;;;;;9.30;5.50;;;;;;;18.10;nan;100484.22;5047429;28;20032;-76
2023/05/29 06:27:42;;;;;;;9.68;5.53;;;;;;;18.12;nan;100481.28;5058484;28;20039;-76
2023/05/29 06:30:08;;;;;;;7.63;5.40;;;;;;;18.09;nan;100471.16;5055428;28;20029;-76
2023/05/29 06:32:33;;;;;;;9.30;5.00;;;;;;;18.10;nan;100468.25;5056772;28;20465;-75
2023/05/29 06:34:58;;;;;;;7.25;5.22;;;;;;;18.09;nan;100468.50;5056862;28;20025;-77
2023/05/29 06:37:24;;;;;;;9.88;5.70;;;;;;;18.27;nan;100489.22;5045945;28;20024;-75
2023/05/29 06:39:49;;;;;;;11.63;5.43;;;;;;;18.38;nan;100493.41;5057536;28;20024;-77
2023/05/29 06:42:15;;;;;;;9.82;5.28;;;;;;;18.40;nan;100488.59;5059052;28;20021;-77
2023/05/29 06:44:41;;;;;;;9.45;5.13;;;;;;;18.53;nan;100491.72;5040435;28;20033;-76
2023/05/29 06:47:07;;;;;;;9.60;5.55;;;;;;;18.39;nan;100459.53;5055208;28;20055;-73
2023/05/29 06:49:32;;;;;;;8.73;5.25;;;;;;;18.60;nan;100487.69;5043892;28;20040;-73
2023/05/29 06:51:58;;;;;;;10.02;5.22;;;;;;;18.68;nan;100439.09;5055968;28;20028;-73
2023/05/29 06:54:23;;;;;;;12.02;5.40;;;;;;;18.79;nan;100450.50;5037805;28;20021;-74
2023/05/29 06:56:49;;;;;;;12.20;5.03;;;;;;;18.86;nan;100485.69;5054745;28;20028;-75
2023/05/29 06:59:14;;;;;;;7.45;5.15;;;;;;;;;;5053497;28;20499;-73
2023/05/29 07:01:39;;;;;;;9.82;5.18;;;;;;;19.07;nan;100443.63;5055677;28;20441;-72
2023/05/29 07:04:05;;;;;;;10.73;5.00;;;;;;;19.12;nan;100424.88;5057110;28;20120;-73
2023/05/29 07:06:30;;;;;;;8.27;4.43;;;;;;;19.22;nan;100468.59;5056226;28;20056;-72
2023/05/29 07:08:55;;;;;;;9.50;4.95;;;;;;;19.33;nan;100440.72;5040712;28;20062;-74
2023/05/29 07:11:21;;;;;;;8.13;4.75;;;;;;;;;;5056624;28;20028;-75
2023/05/29 07:13:46;;;;;;;12.82;4.72;;;;;;;;;;5039385;28;20631;-74
2023/05/29 07:16:11;;;;;;;8.23;4.97;;;;;;;19.65;nan;100420.63;5060432;28;20564;-73
2023/05/29 07:18:37;;;;;;;13.65;4.70;;;;;;;19.75;nan;100425.88;5060135;28;20047;-73
2023/05/29 07:21:02;;;;;;;9.27;4.28;;;;;;;19.80;nan;100433.84;5054345;28;20028;-73
2023/05/29 07:23:27;;;;;;;10.00;4.72;;;;;;;19.82;nan;100429.00;5056647;28;20028;-73
2023/05/29 07:25:53;;;;;;;7.40;4.55;;;;;;;;;;5037667;28;20031;-73
2023/05/29 07:28:18;;;;;;;7.73;4.20;;;;;;;19.94;nan;100410.69;5041076;28;20040;-73
2023/05/29 07:30:43;;;;;;;7.38;4.72;;;;;;;20.03;nan;100418.84;5044831;28;20131;-73
2023/05/29 07:33:09;;;;;;;14.30;4.80;;;;;;;20.06;nan;100458.34;5042769;28;20112;-73
2023/05/29 07:35:35;;;;;;;11.43;5.28;;;;;;;20.11;nan;100463.66;5047877;28;20021;-74
2023/05/29 07:38:00;;;;;;;12.68;4.45;;;;;;;;;;5057902;28;20048;-73
2023/05/29 07:40:26;;;;;;;7.22;4.68;;;;;;;;;;5058596;28;20028;-73
2023/05/29 07:42:51;;;;;;;8.18;4.78;;;;;;;20.29;nan;100455.94;5059121;28;20036;-73
2023/05/29 07:45:16;;;;;;;10.50;5.30;;;;;;;20.30;nan;100452.97;5059799;28;20028;-74
2023/05/29 07:47:42;;;;;;;11.82;4.80;;;;;;;20.39;nan;100455.78;5060629;28;20078;-74
2023/05/29 07:50:08;;;;;;;7.43;4.32;;;;;;;;;;5058211;28;20033;-74
2023/05/29 07:52:33;;;;;;;6.50;4.57;;;;;;;;;;5056880;28;20111;-74
2023/05/29 07:54:59;;;;;;;9.33;4.63;;;;;;;20.57;nan;100444.34;5059183;28;20578;-73
2023/05/29 07:57:25;;;;;;;8.10;4.65;;;;;;;20.63;nan;100433.56;5059091;28;20284;-72
2023/05/29 07:59:50;;;;;;;5.97;5.03;;;;;;;20.72;nan;100450.53;5042181;28;20474;-74
2023/05/29 08:02:16;;;;;;;9.43;4.88;;;;;;;20.84;nan;100517.78;5041360;28;20032;-74
2023/05/29 08:04:42;;;;;;;5.40;4.35;;;;;;;20.91;nan;100456.66;5059506;28;20029;-74
2023/05/29 08:07:07;;;;;;;5.97;3.90;;;;;;;20.96;nan;100475.31;5045162;28;20054;-72
2023/05/29 08:09:32;;;;;;;7.05;4.53;;;;;;;;;;5043303;28;20031;-73
2023/05/29 08:12:00;;;;;;;4.87;4.37;;;;;;;21.07;nan;100502.72;5061356;28;20028;-73
2023/05/29 08:14:25;;;;;;;8.13;4.25;;;;;;;21.14;nan;100456.81;5059978;28;20086;-73
2023/05/29 08:16:51;;;;;;;5.95;4.28;;;;;;;21.17;nan;100465.06;5059502;28;20040;-73
2023/05/29 08:19:16;;;;;;;5.95;3.83;;;;;;;21.21;nan;100450.00;5059725;28;20020;-73
2023/05/29 08:21:42;;;;;;;4.57;3.97;;;;;;;21.30;nan;100431.34;5055733;28;20028;-74
2023/05/29 08:24:08;;;;;;;7.22;4.55;;;;;;;21.34;nan;100453.78;5056961;28;20024;-73
2023/05/29 08:26:34;;;;;;;7.65;4.28;;;;;;;21.38;nan;100507.53;5058024;28;20135;-70
2023/05/29 08:29:00;;;;;;;8.15;4.22;;;;;;;21.38;nan;100502.19;5056688;28;20025;-74
2023/05/29 08:31:26;;;;;;;6.10;4.25;;;;;;;21.47;nan;100440.72;5054210;28;20021;-73
2023/05/29 08:33:52;;;;;;;7.20;4.28;;;;;;;21.53;nan;100455.63;5056905;28;20029;-73
2023/05/29 08:36:17;;;;;;;4.72;4.05;;;;;;;21.54;nan;100441.13;5055346;28;20033;-73
2023/05/29 08:38:43;;;;;;;6.75;4.18;;;;;;;21.63;nan;100442.81;5036074;28;20751;-73
2023/05/29 08:41:11;;;;;;;7.85;4.60;;;;;;;;;;5051700;28;20688;-74
2023/05/29 08:43:37;;;;;;;6.97;4.25;;;;;;;21.77;nan;100514.41;5056821;28;20033;-72
2023/05/29 08:46:03;;;;;;;8.82;4.47;;;;;;;;;;5057323;28;20036;-72
2023/05/29 08:48:30;;;;;;;9.05;4.95;;;;;;;21.92;nan;100446.28;5060909;28;20036;-72
2023/05/29 08:50:57;;;;;;;12.90;4.85;;;;;;;21.93;nan;100475.47;5058260;28;20144;-73
2023/05/29 08:53:24;;;;;;;6.53;4.65;;;;;;;22.07;nan;100465.50;5058833;28;20020;-74
2023/05/29 08:55:52;;;;;;;8.55;4.63;;;;;;;22.08;nan;100421.53;5056289;28;20718;-73
2023/05/29 08:58:20;;;;;;;6.45;4.70;;;;;;;22.15;nan;100463.22;5045056;28;20036;-73
2023/05/29 09:00:47;;;;;;;6.68;5.00;;;;;;;22.32;nan;100497.53;5058003;28;20028;-73
2023/05/29 09:03:13;;;;;;;10.38;5.13;;;;;;;22.33;nan;100442.75;5040835;28;20028;-73
2023/05/29 09:05:41;;;;;;;6.97;5.03;;;;;;;22.41;nan;100477.72;5058328;28;20031;-73
2023/05/29 09:08:09;;;;;;;10.15;5.22;;;;;;;22.51;nan;100433.75;5059628;28;20025;-72
2023/05/29 09:10:35;;;;;;;8.60;4.93;;;;;;;22.54;nan;100441.19;5040048;28;20786;-72
2023/05/29 09:13:01;;;;;;;9.00;5.30;;;;;;;22.60;nan;100442.69;5057331;28;20039;-72
2023/05/29 09:15:27;;;;;;;9.40;5.13;;;;;;;22.67;nan;100496.72;5057834;28;20527;-72
2023/05/29 09:17:59;;;;;;;7.88;5.35;;;;;;;22.84;nan;100583.84;5047514;28;20078;-72
2023/05/29 09:20:27;;;;;;;10.68;5.03;;;;;;;22.86;nan;100450.09;5040623;28;20032;-72
2023/05/29 09:23:09;;;;;;;7.05;5.03;;;;;;;22.97;nan;100467.56;5056711;28;20040;-72
2023/05/29 09:25:41;;;;;;;7.05;4.80;;;;;;;22.88;nan;100427.22;5058029;28;20029;-72
2023/05/29 09:28:08;;;;;;;10.30;5.10;;;;;;;22.93;nan;100445.09;5056667;28;20509;-73
2023/05/29 09:30:44;;;;;;;6.15;4.97;;;;;;;22.84;nan;100404.78;5056216;28;20029;-73
2023/05/29 09:33:11;;;;;;;9.02;4.93;;;;;;;22.92;nan;100451.56;5045147;28;20036;-73
2023/05/29 09:35:40;;;;;;;10.40;5.20;;;;;;;22.90;nan;100457.25;5060772;28;20048;-73
2023/05/29 09:38:07;;;;;;;11.38;5.53;;;;;;;22.83;nan;100383.59;5057993;28;20040;-73
2023/05/29 09:40:35;;;;;;;7.35;5.10;;;;;;;22.87;nan;100438.28;5058631;28;20130;-75
2023/05/29 09:43:08;;;;;;;11.05;5.57;;;;;;;22.85;nan;100427.84;5043043;28;20025;-75
2023/05/29 09:45:37;;;;;;;11.52;5.95;;;;;;;22.79;nan;100421.00;5058510;28;20020;-76
2023/05/29 09:48:02;;;;;;;10.48;5.40;;;;;;;22.77;nan;100433.13;5055296;28;20573;-73
2023/05/29 09:50:28;;;;;;;11.13;5.60;;;;;;;22.67;nan;100445.72;5058968;28;20104;-72
2023/05/29 09:52:57;;;;;;;9.82;5.20;;;;;;;22.63;nan;100478.84;5057510;28;20413;-73
2023/05/29 09:55:26;;;;;;;5.60;5.00;;;;;;;22.64;nan;100483.91;5058030;28;20561;-73
2023/05/29 09:57:53;;;;;;;7.32;4.85;;;;;;;22.65;nan;100480.13;5059445;28;20032;-74
2023/05/29 10:00:19;;;;;;;11.27;4.78;;;;;;;22.56;nan;100476.59;5060479;28;20499;-73
2023/05/29 10:02:45;;;;;;;6.82;4.63;;;;;;;22.57;nan;100474.69;5041068;28;20515;-74
2023/05/29 10:05:12;;;;;;;10.52;4.85;;;;;;;22.49;nan;100465.47;5057071;28;20119;-74
2023/05/29 10:07:43;;;;;;;8.27;5.45;;;;;;;22.55;nan;100482.25;5056950;28;20517;-74
2023/05/29 10:10:11;;;;;;;7.85;4.80;;;;;;;22.47;nan;100470.34;5059428;28;20025;-74
2023/05/29 10:12:38;;;;;;;9.73;5.55;;;;;;;22.44;nan;100469.06;5058187;28;20108;-75
2023/05/29 10:15:11;;;;;;;11.13;5.20;;;;;;;22.47;nan;100473.03;5058148;28;20016;-74
2023/05/29 10:17:39;;;;;;;12.43;6.00;;;;;;;22.40;nan;100469.97;5049394;28;20031;-73
2023/05/29 10:20:09;;;;;;;16.03;6.63;;;;;;;22.38;nan;100474.84;5056409;28;20032;-76
2023/05/29 10:22:40;;;;;;;19.65;7.50;;;;;;;22.29;nan;100480.09;5062065;28;20032;-75
2023/05/29 10:25:09;;;;;;;12.02;6.22;;;;;;;22.21;nan;100489.66;5057551;28;20041;-76
2023/05/29 10:27:34;;;;;;;14.07;6.30;;;;;;;22.12;nan;100480.69;5043971;28;20494;-75
2023/05/29 10:30:06;;;;;;;12.68;6.15;;;;;;;21.75;nan;100436.97;5056699;28;20025;-75
2023/05/29 10:33:09;;;;;;;9.60;6.20;;;;;;;21.97;nan;100476.47;5055860;28;20047;-74
2023/05/29 10:36:13;;;;;;;11.20;6.68;;;;;;;21.89;nan;100463.75;5056429;28;20107;-74
2023/05/29 10:38:41;;;;;;;9.07;6.40;;;;;;;21.72;nan;100450.19;5001118;28;20043;-75
2023/05/29 10:41:27;;;;;;;11.18;5.75;;;;;;;21.69;nan;100456.91;5053891;28;20036;-75
2023/05/29 10:44:00;;;;;;;11.25;6.20;;;;;;;21.55;nan;100442.69;5055323;28;20028;-76
2023/05/29 10:46:48;;;;;;;8.18;6.47;;;;;;;21.56;nan;100441.63;5057958;28;20021;-76
2023/05/29 10:49:21;;;;;;;11.77;6.78;;;;;;;21.52;nan;100445.97;5037787;28;20024;-76
2023/05/29 10:51:48;;;;;;;11.70;6.88;;;;;;;21.39;nan;100431.47;5037740;28;20521;-76
2023/05/29 10:54:14;;;;;;;8.90;7.00;;;;;;;21.35;nan;100425.88;5054878;28;20398;-76
2023/05/29 10:56:41;;;;;;;12.55;6.72;;;;;;;21.30;nan;100426.00;5055426;28;20141;-76
2023/05/29 10:59:07;;;;;;;11.95;7.10;;;;;;;21.30;nan;100430.56;5056130;28;20517;-76
2023/05/29 11:01:33;;;;;;;9.73;7.35;;;;;;;21.28;nan;100430.84;5044407;28;20035;-75
2023/05/29 11:04:26;;;;;;;9.57;6.75;;;;;;;21.31;nan;100426.78;5056186;28;20033;-75
2023/05/29 11:06:52;;;;;;;11.25;6.72;;;;;;;21.23;nan;100420.22;5054869;28;20045;-75
2023/05/29 11:09:35;;;;;;;12.27;8.27;;;;;;;21.24;nan;100416.47;5052045;28;20035;-75
2023/05/29 11:12:35;;;;;;;7.82;7.03;;;;;;;21.34;nan;100408.25;5039518;28;20043;-74
2023/05/29 11:15:13;;;;;;;11.00;7.65;;;;;;;21.40;nan;100412.44;5054103;28;20508;-75
2023/05/29 11:17:38;;;;;;;9.85;7.18;;;;;;;21.52;nan;100405.78;5055951;28;20107;-75
2023/05/29 11:20:33;;;;;;;11.03;7.17;;;;;;;21.64;nan;100411.44;5042502;28;20465;-76
2023/05/29 11:22:58;;;;;;;9.38;6.38;;;;;;;21.79;nan;100410.38;5045912;28;20278;-75
2023/05/29 11:25:24;;;;;;;10.85;6.82;;;;;;;21.88;nan;100406.69;5058297;28;20079;-75
2023/05/29 11:27:51;;;;;;;9.57;6.28;;;;;;;21.98;nan;100402.97;5056154;28;20082;-75
2023/05/29 11:30:21;;;;;;;7.53;5.70;;;;;;;22.07;nan;100398.47;5058552;28;20031;-76
2023/05/29 11:32:47;;;;;;;9.05;6.03;;;;;;;22.16;nan;100395.88;5057384;28;20123;-75
2023/05/29 11:35:13;;;;;;;10.00;6.45;;;;;;;22.30;nan;100406.59;5041024;28;20074;-75
2023/05/29 11:37:45;;;;;;;9.63;5.90;;;;;;;22.23;nan;100384.75;5042784;28;20121;-74
2023/05/29 11:40:12;;;;;;;10.75;5.63;;;;;;;22.33;nan;100392.56;5058371;28;20040;-75
2023/05/29 11:42:45;;;;;;;10.93;5.38;;;;;;;22.26;nan;100366.16;5056615;28;20041;-75